createdAt,value
2022-10-13T00:00:51.269Z,21.23
2022-10-13T00:03:18.796Z,19.02
2022-10-13T00:05:48.291Z,21.65
2022-10-13T00:08:18.596Z,17.80
2022-10-13T00:10:47.396Z,19.95
2022-10-13T00:13:15.026Z,18.67
2022-10-13T00:15:44.601Z,19.75
2022-10-13T00:18:12.004Z,21.90
2022-10-13T00:20:44.705Z,21.35
2022-10-13T00:23:12.102Z,17.83
2022-10-13T00:25:48.137Z,35.50
2022-10-13T00:28:17.459Z,25.27
2022-10-13T00:30:45.094Z,21.50
2022-10-13T00:33:13.159Z,35.88
2022-10-13T00:35:42.233Z,19.77
2022-10-13T00:38:11.944Z,27.17
2022-10-13T00:40:49.474Z,18.77
2022-10-13T00:43:19.240Z,19.65
2022-10-13T00:45:47.446Z,21.67
2022-10-13T00:48:14.585Z,19.08
2022-10-13T00:50:42.201Z,20.15
2022-10-13T00:53:11.075Z,22.52
2022-10-13T00:55:39.780Z,27.15
2022-10-13T00:58:09.609Z,24.98
2022-10-13T01:00:36.762Z,20.02
2022-10-13T01:03:03.993Z,19.63
2022-10-13T01:05:31.125Z,21.35
2022-10-13T01:07:59.531Z,31.17
2022-10-13T01:10:33.359Z,34.38
2022-10-13T01:13:09.382Z,24.33
2022-10-13T01:15:56.193Z,22.17
2022-10-13T01:18:42.037Z,23.10
2022-10-13T01:21:33.514Z,20.98
2022-10-13T01:24:22.328Z,17.38
2022-10-13T01:27:08.285Z,26.52
2022-10-13T01:30:02.454Z,29.55
2022-10-13T01:32:38.521Z,26.55
2022-10-13T01:35:13.562Z,29.05
2022-10-13T01:38:09.113Z,26.75
2022-10-13T01:40:42.558Z,19.55
2022-10-13T01:43:26.076Z,16.92
2022-10-13T01:45:58.684Z,18.08
2022-10-13T01:48:27.745Z,24.08
2022-10-13T01:50:57.455Z,16.05
2022-10-13T01:53:25.224Z,18.30
2022-10-13T01:55:56.903Z,16.20
2022-10-13T01:58:26.661Z,15.48
2022-10-13T02:01:27.287Z,14.15
2022-10-13T02:04:06.363Z,14.40
2022-10-13T02:06:45.658Z,14.00
2022-10-13T02:09:28.850Z,13.95
2022-10-13T02:12:02.374Z,15.77
2022-10-13T02:14:38.125Z,17.30
2022-10-13T02:17:05.914Z,13.75
2022-10-13T02:19:37.717Z,16.77
2022-10-13T02:22:06.784Z,23.27
2022-10-13T02:24:34.018Z,20.73
2022-10-13T02:27:01.549Z,21.45
2022-10-13T02:29:28.705Z,22.48
2022-10-13T02:31:55.873Z,28.30
2022-10-13T02:34:23.055Z,23.75
2022-10-13T02:36:50.223Z,24.88
2022-10-13T02:39:17.440Z,26.92
2022-10-13T02:41:44.660Z,36.67
2022-10-13T02:44:11.803Z,18.98
2022-10-13T02:46:41.911Z,26.23
2022-10-13T02:49:10.460Z,28.60
2022-10-13T02:51:40.156Z,29.25
2022-10-13T02:54:08.296Z,21.90
2022-10-13T02:56:35.519Z,28.33
2022-10-13T02:59:02.787Z,31.27
2022-10-13T03:01:29.989Z,28.10
2022-10-13T03:03:57.185Z,16.58
2022-10-13T03:06:24.698Z,18.98
2022-10-13T03:08:51.816Z,22.23
2022-10-13T03:11:19.009Z,23.60
2022-10-13T03:13:46.588Z,17.33
2022-10-13T03:16:13.826Z,20.42
2022-10-13T03:18:40.966Z,20.70
2022-10-13T03:21:10.622Z,22.10
2022-10-13T03:23:39.799Z,21.05
2022-10-13T03:26:07.040Z,20.48
2022-10-13T03:28:34.218Z,17.90
2022-10-13T03:31:07.198Z,25.00
2022-10-13T03:33:34.963Z,28.08
2022-10-13T03:36:04.071Z,16.95
2022-10-13T03:38:33.302Z,17.55
2022-10-13T03:41:16.659Z,15.15
2022-10-13T03:43:47.127Z,15.32
2022-10-13T03:46:16.204Z,16.38
2022-10-13T03:48:43.923Z,16.73
2022-10-13T03:51:14.418Z,21.30
2022-10-13T03:53:46.215Z,16.02
2022-10-13T03:56:19.635Z,14.68
2022-10-13T03:58:57.339Z,15.90
2022-10-13T04:03:53.694Z,15.98
2022-10-13T04:06:21.251Z,12.40
2022-10-13T04:08:48.707Z,20.88
2022-10-13T04:11:16.408Z,15.57
2022-10-13T04:13:45.265Z,20.83
2022-10-13T04:16:15.799Z,16.15
2022-10-13T04:18:44.894Z,14.95
2022-10-13T04:21:14.483Z,16.10
2022-10-13T04:23:42.263Z,14.45
2022-10-13T04:26:16.860Z,23.60
2022-10-13T04:28:45.491Z,15.43
2022-10-13T04:31:12.811Z,13.88
2022-10-13T04:33:40.015Z,14.40
2022-10-13T04:36:09.051Z,15.80
2022-10-13T04:38:36.268Z,24.13
2022-10-13T04:41:04.966Z,15.98
2022-10-13T04:43:33.234Z,20.90
2022-10-13T04:46:15.948Z,17.30
2022-10-13T04:48:43.249Z,15.20
2022-10-13T04:51:13.363Z,14.25
2022-10-13T04:53:41.020Z,14.55
2022-10-13T04:56:13.954Z,15.05
2022-10-13T04:58:42.540Z,14.55
2022-10-13T05:01:18.858Z,15.90
2022-10-13T05:03:51.569Z,12.98
2022-10-13T05:06:26.973Z,15.38
2022-10-13T05:08:57.835Z,15.75
2022-10-13T05:11:26.534Z,13.80
2022-10-13T05:13:54.420Z,13.60
2022-10-13T05:16:22.648Z,14.52
2022-10-13T05:18:51.292Z,15.68
2022-10-13T05:21:21.405Z,15.18
2022-10-13T05:23:49.040Z,12.50
2022-10-13T05:26:17.965Z,15.05
2022-10-13T05:28:45.544Z,15.50
2022-10-13T05:31:16.840Z,17.38
2022-10-13T05:33:45.105Z,18.88
2022-10-13T05:36:15.666Z,18.77
2022-10-13T05:38:43.299Z,16.45
2022-10-13T05:41:12.853Z,15.23
2022-10-13T05:43:41.657Z,15.55
2022-10-13T05:46:09.182Z,15.88
2022-10-13T05:48:37.620Z,15.45
2022-10-13T05:51:18.677Z,14.73
2022-10-13T05:53:56.812Z,14.00
2022-10-13T05:56:30.252Z,15.30
2022-10-13T05:59:02.668Z,16.13
2022-10-13T06:01:32.738Z,16.17
2022-10-13T06:04:06.483Z,17.90
2022-10-13T06:06:33.952Z,16.55
2022-10-13T06:09:01.355Z,15.65
2022-10-13T06:11:28.514Z,15.68
2022-10-13T06:13:55.668Z,14.00
2022-10-13T06:16:22.781Z,14.05
2022-10-13T06:18:49.946Z,14.23
2022-10-13T06:21:17.140Z,15.07
2022-10-13T06:23:44.532Z,16.50
2022-10-13T06:26:11.899Z,15.95
2022-10-13T06:28:39.143Z,17.25
2022-10-13T06:31:06.667Z,17.08
2022-10-13T06:33:34.630Z,15.82
2022-10-13T06:36:05.837Z,17.00
2022-10-13T06:38:33.836Z,19.20
2022-10-13T06:41:03.061Z,18.15
2022-10-13T06:43:38.894Z,19.13
2022-10-13T06:46:10.696Z,19.55
2022-10-13T06:48:38.195Z,17.88
2022-10-13T06:51:10.806Z,19.20
2022-10-13T06:53:38.248Z,17.05
2022-10-13T06:56:08.072Z,17.90
2022-10-13T06:58:36.287Z,18.65
2022-10-13T07:01:04.511Z,17.90
2022-10-13T07:03:32.124Z,18.70
2022-10-13T07:06:03.678Z,20.25
2022-10-13T07:08:32.174Z,23.45
2022-10-13T07:10:59.513Z,20.77
2022-10-13T07:13:26.667Z,17.60
2022-10-13T07:15:53.809Z,19.00
2022-10-13T07:18:20.949Z,18.38
2022-10-13T07:20:48.094Z,17.08
2022-10-13T07:23:15.239Z,23.25
2022-10-13T07:25:42.393Z,17.40
2022-10-13T07:28:09.582Z,17.88
2022-10-13T07:30:39.460Z,18.38
2022-10-13T07:33:06.752Z,16.33
2022-10-13T07:35:34.367Z,18.20
2022-10-13T07:38:01.615Z,15.80
2022-10-13T07:40:29.086Z,16.05
2022-10-13T07:42:57.327Z,17.85
2022-10-13T07:45:25.132Z,15.07
2022-10-13T07:47:52.344Z,16.05
2022-10-13T07:50:20.269Z,15.52
2022-10-13T07:52:47.680Z,15.30
2022-10-13T07:55:14.859Z,14.65
2022-10-13T07:57:42.011Z,15.18
2022-10-13T08:00:09.877Z,16.08
2022-10-13T08:02:39.774Z,17.40
2022-10-13T08:05:07.739Z,15.95
2022-10-13T08:07:34.926Z,16.33
2022-10-13T08:10:02.367Z,15.07
2022-10-13T08:12:29.646Z,16.65
2022-10-13T08:14:58.479Z,15.63
2022-10-13T08:17:27.789Z,15.70
2022-10-13T08:19:54.927Z,15.82
2022-10-13T08:22:28.322Z,13.65
2022-10-13T08:24:55.762Z,12.57
2022-10-13T08:27:37.072Z,13.85
2022-10-13T08:30:12.648Z,15.40
2022-10-13T08:32:39.807Z,17.05
2022-10-13T08:35:07.347Z,16.63
2022-10-13T08:37:34.490Z,14.73
2022-10-13T08:40:01.952Z,14.82
2022-10-13T08:42:29.468Z,15.20
2022-10-13T08:45:39.393Z,14.45
2022-10-13T08:48:13.877Z,15.05
2022-10-13T08:50:44.296Z,16.83
2022-10-13T08:53:18.726Z,14.20
2022-10-13T08:55:52.799Z,13.80
2022-10-13T08:58:27.004Z,14.52
2022-10-13T09:01:08.756Z,13.50
2022-10-13T09:04:06.660Z,14.63
2022-10-13T09:06:41.581Z,14.65
2022-10-13T09:09:13.200Z,13.70
2022-10-13T09:11:46.452Z,13.88
2022-10-13T09:14:29.332Z,13.18
2022-10-13T09:17:12.886Z,14.73
2022-10-13T09:19:40.121Z,14.77
2022-10-13T09:22:15.554Z,14.05
2022-10-13T09:24:42.718Z,14.57
2022-10-13T09:27:16.186Z,15.88
2022-10-13T09:29:45.288Z,15.00
2022-10-13T09:32:20.175Z,14.65
2022-10-13T09:34:48.395Z,13.60
2022-10-13T09:37:24.691Z,13.18
2022-10-13T09:40:13.257Z,13.15
2022-10-13T09:42:40.813Z,14.05
2022-10-13T09:45:16.608Z,13.55
2022-10-13T09:47:56.058Z,14.18
2022-10-13T09:50:27.032Z,14.57
2022-10-13T09:53:12.015Z,15.23
2022-10-13T09:55:39.292Z,13.93
2022-10-13T09:58:13.829Z,14.55
2022-10-13T10:00:41.967Z,14.88
2022-10-13T10:03:20.784Z,14.98
2022-10-13T10:05:53.915Z,14.70
2022-10-13T10:08:57.961Z,14.57
2022-10-13T10:11:41.543Z,14.35
2022-10-13T10:14:37.150Z,13.82
2022-10-13T10:17:35.189Z,13.90
2022-10-13T10:20:24.152Z,14.45
2022-10-13T10:23:01.293Z,14.73
2022-10-13T10:25:34.448Z,14.82
2022-10-13T10:28:20.548Z,13.45
2022-10-13T10:30:59.041Z,14.50
2022-10-13T10:33:58.923Z,14.10
2022-10-13T10:36:45.212Z,13.75
2022-10-13T10:39:18.346Z,12.68
2022-10-13T10:41:57.887Z,13.27
2022-10-13T10:44:33.074Z,12.73
2022-10-13T10:47:32.367Z,14.45
2022-10-13T10:50:05.958Z,13.48
2022-10-13T10:52:41.529Z,11.77
2022-10-13T10:55:20.703Z,14.93
2022-10-13T10:57:59.676Z,13.27
2022-10-13T11:03:10.529Z,13.77
2022-10-13T11:06:00.975Z,13.70
2022-10-13T11:08:39.202Z,14.90
2022-10-13T11:11:25.188Z,14.65
2022-10-13T11:14:07.717Z,14.52
2022-10-13T11:16:53.545Z,14.95
2022-10-13T11:19:37.188Z,14.15
2022-10-13T11:22:04.316Z,14.18
2022-10-13T11:24:34.881Z,14.10
2022-10-13T11:27:48.521Z,14.85
2022-10-13T11:30:42.008Z,15.25
2022-10-13T11:33:30.826Z,14.40
2022-10-13T11:35:57.999Z,14.73
2022-10-13T11:38:37.400Z,16.70
2022-10-13T11:41:14.178Z,15.57
2022-10-13T11:43:56.608Z,14.23
2022-10-13T11:46:55.823Z,15.85
2022-10-13T11:49:35.767Z,15.32
2022-10-13T11:52:15.001Z,16.13
2022-10-13T11:54:54.291Z,15.52
2022-10-13T11:57:24.005Z,15.63
2022-10-13T11:59:54.014Z,15.98
2022-10-13T12:02:27.693Z,16.08
2022-10-13T12:05:07.423Z,16.70
2022-10-13T12:07:41.573Z,16.05
2022-10-13T12:10:20.487Z,16.92
2022-10-13T12:12:49.507Z,16.65
2022-10-13T12:15:37.163Z,15.48
2022-10-13T12:18:24.236Z,16.10
2022-10-13T12:20:56.436Z,15.52
2022-10-13T12:23:24.030Z,16.60
2022-10-13T12:25:52.911Z,16.85
2022-10-13T12:28:20.723Z,16.55
2022-10-13T12:30:53.028Z,16.38
2022-10-13T12:33:31.552Z,14.73
2022-10-13T12:36:21.029Z,14.20
2022-10-13T12:38:53.890Z,15.45
2022-10-13T12:41:36.186Z,15.57
2022-10-13T12:44:06.712Z,20.13
2022-10-13T12:46:37.083Z,19.42
2022-10-13T12:49:24.345Z,15.07
2022-10-13T12:52:24.102Z,14.55
2022-10-13T12:54:55.371Z,15.05
2022-10-13T12:57:36.194Z,13.68
2022-10-13T13:00:18.764Z,13.77
2022-10-13T13:02:54.567Z,13.68
2022-10-13T13:05:34.960Z,14.45
2022-10-13T13:08:22.201Z,15.00
2022-10-13T13:11:00.040Z,14.88
2022-10-13T13:13:28.083Z,15.00
2022-10-13T13:16:14.257Z,14.70
2022-10-13T13:18:44.240Z,13.55
2022-10-13T13:21:13.362Z,12.85
2022-10-13T13:23:51.025Z,12.50
2022-10-13T13:26:23.224Z,13.20
2022-10-13T13:28:55.768Z,13.52
2022-10-13T13:31:25.230Z,11.90
2022-10-13T13:33:52.575Z,11.68
2022-10-13T13:36:25.026Z,10.80
2022-10-13T13:38:53.887Z,11.35
2022-10-13T13:41:24.178Z,10.77
2022-10-13T13:43:51.262Z,12.15
2022-10-13T13:46:24.126Z,18.52
2022-10-13T13:48:51.999Z,16.80
2022-10-13T13:51:19.404Z,11.18
2022-10-13T13:53:46.508Z,11.85
2022-10-13T13:56:15.188Z,10.32
2022-10-13T13:58:44.048Z,11.40
2022-10-13T14:01:12.276Z,10.30
2022-10-13T14:03:39.327Z,10.52
2022-10-13T14:06:08.475Z,10.13
2022-10-13T14:08:36.582Z,11.00
2022-10-13T14:11:07.007Z,11.80
2022-10-13T14:13:34.306Z,10.10
2022-10-13T14:16:02.327Z,9.65
2022-10-13T14:18:30.392Z,11.27
2022-10-13T14:20:57.488Z,10.60
2022-10-13T14:23:24.484Z,9.23
2022-10-13T14:25:51.504Z,9.38
2022-10-13T14:28:20.856Z,10.35
2022-10-13T14:30:48.009Z,9.55
2022-10-13T14:33:15.032Z,8.98
2022-10-13T14:35:42.086Z,9.00
2022-10-13T14:38:10.089Z,9.35
2022-10-13T14:40:41.705Z,9.98
2022-10-13T14:43:08.770Z,9.60
2022-10-13T14:45:35.904Z,8.20
2022-10-13T14:48:03.445Z,8.30
2022-10-13T14:50:30.458Z,8.77
2022-10-13T14:52:57.480Z,8.80
2022-10-13T14:55:25.358Z,8.35
2022-10-13T14:57:52.307Z,9.23
2022-10-13T15:00:19.632Z,9.93
2022-10-13T15:02:46.666Z,9.00
2022-10-13T15:05:13.679Z,9.13
2022-10-13T15:07:41.418Z,9.15
2022-10-13T15:10:08.672Z,8.95
2022-10-13T15:12:35.755Z,8.57
2022-10-13T15:15:03.389Z,8.23
2022-10-13T15:17:31.387Z,10.13
2022-10-13T15:19:58.576Z,9.43
2022-10-13T15:22:25.620Z,8.85
2022-10-13T15:24:52.598Z,8.25
2022-10-13T15:27:19.578Z,8.38
2022-10-13T15:29:46.594Z,9.18
2022-10-13T15:32:15.820Z,7.95
2022-10-13T15:34:42.831Z,8.18
2022-10-13T15:37:12.871Z,7.25
2022-10-13T15:39:39.930Z,7.63
2022-10-13T15:42:07.116Z,7.07
2022-10-13T15:44:57.367Z,8.15
2022-10-13T15:47:21.125Z,8.35
2022-10-13T15:49:48.078Z,8.13
2022-10-13T15:52:15.135Z,7.85
2022-10-13T15:54:42.135Z,6.57
2022-10-13T15:57:09.095Z,7.40
2022-10-13T15:59:36.059Z,7.05
2022-10-13T16:02:03.056Z,8.20
2022-10-13T16:04:34.795Z,8.07
2022-10-13T16:07:04.280Z,8.70
2022-10-13T16:09:31.372Z,7.97
2022-10-13T16:11:58.376Z,8.13
2022-10-13T16:14:25.342Z,9.20
2022-10-13T16:16:52.335Z,8.90
2022-10-13T16:19:19.315Z,8.93
2022-10-13T16:21:46.296Z,7.75
2022-10-13T16:24:14.207Z,8.10
2022-10-13T16:26:41.175Z,7.53
2022-10-13T16:29:08.178Z,7.93
2022-10-13T16:31:35.404Z,8.77
2022-10-13T16:34:02.667Z,8.93
2022-10-13T16:36:29.609Z,7.53
2022-10-13T16:38:56.794Z,7.90
2022-10-13T16:41:24.116Z,8.43
2022-10-13T16:43:51.315Z,7.85
2022-10-13T16:46:20.078Z,8.10
2022-10-13T16:48:47.895Z,8.20
2022-10-13T16:51:20.839Z,8.60
2022-10-13T16:53:49.583Z,7.90
2022-10-13T16:56:16.748Z,8.20
2022-10-13T16:58:43.730Z,8.15
2022-10-13T17:01:11.943Z,8.63
2022-10-13T17:03:39.686Z,8.77
2022-10-13T17:06:07.032Z,8.73
2022-10-13T17:08:34.338Z,8.30
2022-10-13T17:11:03.767Z,9.27
2022-10-13T17:13:32.246Z,9.13
2022-10-13T17:15:59.646Z,9.00
2022-10-13T17:18:31.907Z,8.93
2022-10-13T17:32:46.705Z,9.18
2022-10-13T17:35:28.753Z,11.90
2022-10-13T17:37:57.084Z,9.55
2022-10-13T17:40:24.316Z,9.52
2022-10-13T17:42:51.421Z,9.02
2022-10-13T17:45:18.788Z,9.32
2022-10-13T17:47:49.872Z,10.15
2022-10-13T17:50:18.236Z,11.52
2022-10-13T17:52:45.349Z,10.85
2022-10-13T17:55:12.614Z,10.57
2022-10-13T17:57:39.736Z,10.32
2022-10-13T18:00:07.679Z,9.48
2022-10-13T18:02:40.570Z,11.15
2022-10-13T18:05:07.950Z,11.15
2022-10-13T18:07:35.022Z,10.55
2022-10-13T18:10:02.489Z,12.10
2022-10-13T18:12:29.492Z,11.57
2022-10-13T18:14:56.645Z,12.02
2022-10-13T18:17:24.101Z,12.40
2022-10-13T18:19:51.188Z,14.95
2022-10-13T18:22:18.317Z,13.60
2022-10-13T18:24:46.445Z,13.90
2022-10-13T18:27:13.526Z,14.20
2022-10-13T18:29:41.805Z,14.63
2022-10-13T18:32:09.045Z,12.88
2022-10-13T18:34:36.146Z,13.75
2022-10-13T18:37:03.206Z,13.88
2022-10-13T18:39:30.230Z,12.95
2022-10-13T18:41:57.623Z,13.80
2022-10-13T18:44:34.050Z,14.55
2022-10-13T18:47:01.110Z,14.45
2022-10-13T18:49:28.127Z,15.48
2022-10-13T18:51:55.209Z,13.73
2022-10-13T18:54:22.304Z,15.27
2022-10-13T18:56:49.349Z,14.80
2022-10-13T18:59:16.457Z,16.25
2022-10-13T19:01:43.551Z,15.23
2022-10-13T19:04:10.953Z,13.85
2022-10-13T19:06:39.387Z,13.95
2022-10-13T19:09:08.336Z,13.07
2022-10-13T19:11:36.957Z,14.52
2022-10-13T19:14:06.209Z,14.32
2022-10-13T19:16:37.141Z,12.50
2022-10-13T19:19:04.442Z,13.07
2022-10-13T19:21:31.486Z,12.30
2022-10-13T19:23:59.672Z,13.93
2022-10-13T19:26:29.768Z,12.65
2022-10-13T19:29:10.198Z,13.35
2022-10-13T19:31:38.490Z,13.32
2022-10-13T19:34:07.964Z,15.68
2022-10-13T19:36:40.940Z,14.65
2022-10-13T19:39:18.792Z,13.32
2022-10-13T19:41:46.988Z,12.98
2022-10-13T19:44:15.218Z,13.20
2022-10-13T19:46:43.457Z,13.38
2022-10-13T19:49:12.616Z,15.45
2022-10-13T19:51:45.492Z,14.50
2022-10-13T19:54:13.549Z,18.83
2022-10-13T19:56:46.250Z,18.05
2022-10-13T19:59:13.650Z,16.02
2022-10-13T20:01:40.762Z,16.05
2022-10-13T20:04:13.874Z,15.63
2022-10-13T20:06:44.235Z,17.87
2022-10-13T20:09:11.312Z,16.88
2022-10-13T20:11:38.404Z,16.73
2022-10-13T20:14:05.510Z,15.45
2022-10-13T20:16:32.732Z,15.13
2022-10-13T20:19:00.644Z,14.80
2022-10-13T20:21:28.513Z,13.82
2022-10-13T20:23:56.774Z,15.60
2022-10-13T20:26:24.887Z,14.95
2022-10-13T20:28:53.933Z,15.77
2022-10-13T20:31:22.357Z,16.95
2022-10-13T20:33:54.548Z,14.27
2022-10-13T20:36:24.394Z,16.02
2022-10-13T20:38:51.435Z,14.68
2022-10-13T20:41:26.178Z,18.10
2022-10-13T20:43:55.064Z,19.10
2022-10-13T20:46:22.892Z,18.40
2022-10-13T20:49:09.922Z,18.90
2022-10-13T20:51:37.985Z,16.40
2022-10-13T20:54:06.114Z,18.40
2022-10-13T20:56:34.737Z,19.80
2022-10-13T20:59:05.057Z,18.13
2022-10-13T21:01:32.650Z,16.52
2022-10-13T21:03:59.826Z,16.08
2022-10-13T21:06:27.281Z,16.83
2022-10-13T21:08:56.889Z,16.08
2022-10-13T21:11:24.469Z,16.45
2022-10-13T21:13:52.278Z,16.70
2022-10-13T21:16:25.304Z,17.65
2022-10-13T21:18:52.929Z,18.15
2022-10-13T21:21:22.572Z,18.33
2022-10-13T21:23:57.889Z,16.23
2022-10-13T21:26:26.997Z,16.92
2022-10-13T21:28:54.522Z,17.70
2022-10-13T21:31:23.024Z,16.83
2022-10-13T21:33:50.501Z,19.00
2022-10-13T21:36:28.097Z,16.90
2022-10-13T21:38:58.256Z,19.08
2022-10-13T21:41:25.600Z,19.77
2022-10-13T21:43:53.483Z,18.83
2022-10-13T21:46:24.042Z,22.52
2022-10-13T21:48:56.126Z,20.58
2022-10-13T21:51:31.464Z,20.95
2022-10-13T21:54:01.273Z,17.70
2022-10-13T21:56:32.563Z,17.58
2022-10-13T21:59:00.134Z,15.90
2022-10-13T22:01:27.670Z,17.95
2022-10-13T22:03:58.270Z,17.75
2022-10-13T22:06:29.997Z,17.58
2022-10-13T22:08:58.621Z,22.02
2022-10-13T22:11:28.131Z,18.77
2022-10-13T22:13:56.468Z,19.50
2022-10-13T22:16:27.357Z,20.38
2022-10-13T22:18:56.138Z,18.57
2022-10-13T22:21:27.224Z,18.60
2022-10-13T22:23:59.166Z,19.20
2022-10-13T22:26:29.473Z,20.15
2022-10-13T22:28:57.764Z,19.38
2022-10-13T22:31:25.594Z,19.48
2022-10-13T22:33:53.133Z,17.92
2022-10-13T22:36:22.405Z,17.17
2022-10-13T22:38:50.601Z,15.65
2022-10-13T22:41:19.145Z,18.70
2022-10-13T22:43:50.594Z,17.70
2022-10-13T22:46:19.791Z,15.88
2022-10-13T22:48:47.689Z,16.48
2022-10-13T22:51:17.946Z,17.15
2022-10-13T22:53:45.517Z,19.02
2022-10-13T22:56:18.111Z,18.17
2022-10-13T22:58:55.792Z,16.27
2022-10-13T23:01:24.609Z,19.77
2022-10-13T23:03:54.377Z,17.10
2022-10-13T23:06:25.805Z,20.65
2022-10-13T23:08:52.950Z,17.08
2022-10-13T23:11:20.564Z,19.30
2022-10-13T23:13:47.637Z,18.55
2022-10-13T23:16:18.704Z,15.63
2022-10-13T23:18:45.764Z,19.25
2022-10-13T23:21:38.798Z,20.23
2022-10-13T23:24:06.715Z,16.58
2022-10-13T23:26:34.589Z,16.85
2022-10-13T23:29:01.973Z,16.63
2022-10-13T23:31:29.357Z,17.08
2022-10-13T23:33:57.298Z,14.98
2022-10-13T23:36:26.545Z,15.07
2022-10-13T23:38:58.413Z,16.33
2022-10-13T23:41:26.339Z,16.27
2022-10-13T23:43:53.431Z,15.73
2022-10-13T23:46:20.489Z,16.40
2022-10-13T23:48:47.655Z,14.95
2022-10-13T23:51:18.177Z,15.07
2022-10-13T23:53:45.922Z,15.35
2022-10-13T23:56:15.709Z,16.05
2022-10-13T23:58:43.931Z,15.38
